createdAt,value
2022-09-16T00:00:55.384Z,12.22
2022-09-16T00:03:23.137Z,12.28
2022-09-16T00:05:53.323Z,12.28
2022-09-16T00:08:23.283Z,12.26
2022-09-16T00:10:52.393Z,12.26
2022-09-16T00:13:21.024Z,12.28
2022-09-16T00:15:51.827Z,12.23
2022-09-16T00:18:20.463Z,12.23
2022-09-16T00:20:50.159Z,12.18
2022-09-16T00:23:18.075Z,12.17
2022-09-16T00:25:51.975Z,12.18
2022-09-16T00:28:20.200Z,12.19
2022-09-16T00:30:47.863Z,12.21
2022-09-16T00:33:17.309Z,12.15
2022-09-16T00:35:45.159Z,12.16
2022-09-16T00:38:13.904Z,12.12
2022-09-16T00:40:47.177Z,12.07
2022-09-16T00:43:15.992Z,12.07
2022-09-16T00:45:45.374Z,12.01
2022-09-16T00:51:57.184Z,11.96
2022-09-16T00:54:25.852Z,11.94
2022-09-16T00:57:57.796Z,11.93
2022-09-16T01:00:27.008Z,11.91
2022-09-16T01:02:55.267Z,11.93
2022-09-16T01:05:25.980Z,11.92
2022-09-16T01:07:55.459Z,11.93
2022-09-16T01:10:25.076Z,11.95
2022-09-16T01:12:57.357Z,11.93
2022-09-16T01:15:31.902Z,11.93
2022-09-16T01:18:10.304Z,11.92
2022-09-16T01:21:04.888Z,11.96
2022-09-16T01:24:08.380Z,11.95
2022-09-16T01:27:05.295Z,11.89
2022-09-16T01:29:40.489Z,11.98
2022-09-16T01:32:13.641Z,12.07
2022-09-16T01:34:50.588Z,12.06
2022-09-16T01:37:28.422Z,12.12
2022-09-16T01:40:03.118Z,12.08
2022-09-16T01:42:37.922Z,11.93
2022-09-16T01:45:08.411Z,11.84
2022-09-16T01:47:45.900Z,11.92
2022-09-16T01:50:19.739Z,11.81
2022-09-16T01:52:52.909Z,11.80
2022-09-16T01:55:25.459Z,11.80
2022-09-16T01:57:56.457Z,11.81
2022-09-16T02:00:25.353Z,11.78
2022-09-16T02:02:57.507Z,11.78
2022-09-16T02:05:28.260Z,11.80
2022-09-16T02:08:00.218Z,11.83
2022-09-16T02:10:32.068Z,11.82
2022-09-16T02:13:04.272Z,11.78
2022-09-16T02:15:38.891Z,11.80
2022-09-16T02:18:12.148Z,11.84
2022-09-16T02:20:42.846Z,11.87
2022-09-16T02:23:14.203Z,11.82
2022-09-16T02:25:43.529Z,11.79
2022-09-16T02:28:13.495Z,11.82
2022-09-16T02:30:43.577Z,11.76
2022-09-16T02:33:14.369Z,11.81
2022-09-16T02:35:43.439Z,11.83
2022-09-16T02:38:15.271Z,11.81
2022-09-16T02:40:47.972Z,11.85
2022-09-16T02:43:16.541Z,11.87
2022-09-16T02:45:48.474Z,11.90
2022-09-16T02:48:23.821Z,11.93
2022-09-16T02:50:54.935Z,11.98
2022-09-16T02:53:31.992Z,11.94
2022-09-16T02:56:03.115Z,11.91
2022-09-16T02:58:31.014Z,11.88
2022-09-16T03:00:59.277Z,11.92
2022-09-16T03:03:28.287Z,11.85
2022-09-16T03:06:12.313Z,11.92
2022-09-16T03:08:40.871Z,11.86
2022-09-16T03:11:19.558Z,11.82
2022-09-16T03:13:54.964Z,11.84
2022-09-16T03:16:26.322Z,11.84
2022-09-16T03:19:04.685Z,11.82
2022-09-16T03:21:37.381Z,11.80
2022-09-16T03:24:14.414Z,11.81
2022-09-16T03:26:48.213Z,11.79
2022-09-16T03:29:20.680Z,11.70
2022-09-16T03:31:52.743Z,11.72
2022-09-16T03:34:27.713Z,11.76
2022-09-16T03:36:59.061Z,11.71
2022-09-16T03:39:27.671Z,11.70
2022-09-16T03:41:56.476Z,11.69
2022-09-16T03:44:33.071Z,11.67
2022-09-16T03:47:00.641Z,11.63
2022-09-16T03:49:30.564Z,11.71
2022-09-16T03:51:58.606Z,11.68
2022-09-16T03:54:27.371Z,11.65
2022-09-16T03:56:56.188Z,11.69
2022-09-16T03:59:23.905Z,11.69
2022-09-16T04:01:51.836Z,11.68
2022-09-16T04:04:21.852Z,11.67
2022-09-16T04:06:51.007Z,11.61
2022-09-16T04:09:18.615Z,11.62
2022-09-16T04:11:46.671Z,11.59
2022-09-16T04:14:14.661Z,11.64
2022-09-16T04:16:45.143Z,11.53
2022-09-16T04:19:15.200Z,11.57
2022-09-16T04:21:44.131Z,11.51
2022-09-16T04:24:14.364Z,11.46
2022-09-16T04:26:43.288Z,11.50
2022-09-16T04:29:11.293Z,11.45
2022-09-16T04:31:40.020Z,11.48
2022-09-16T04:34:08.012Z,11.51
2022-09-16T04:36:36.680Z,11.41
2022-09-16T04:39:05.052Z,11.46
2022-09-16T04:41:36.696Z,11.47
2022-09-16T04:44:04.718Z,11.40
2022-09-16T04:46:34.578Z,11.40
2022-09-16T04:49:03.640Z,11.43
2022-09-16T04:51:32.351Z,11.43
2022-09-16T04:54:01.624Z,11.45
2022-09-16T04:56:31.488Z,11.42
2022-09-16T04:59:03.600Z,11.42
2022-09-16T05:01:33.909Z,11.39
2022-09-16T05:04:03.946Z,11.39
2022-09-16T05:06:35.476Z,11.39
2022-09-16T05:09:04.031Z,11.42
2022-09-16T05:12:36.685Z,11.48
2022-09-16T05:15:07.761Z,11.46
2022-09-16T05:17:52.098Z,11.47
2022-09-16T05:20:20.497Z,11.56
2022-09-16T05:22:51.139Z,11.47
2022-09-16T05:25:19.067Z,11.45
2022-09-16T05:27:48.098Z,11.48
2022-09-16T05:30:23.886Z,11.54
2022-09-16T05:32:54.455Z,11.46
2022-09-16T05:35:22.300Z,11.58
2022-09-16T05:37:50.728Z,11.51
2022-09-16T05:40:19.516Z,11.53
2022-09-16T05:42:49.754Z,11.58
2022-09-16T05:45:24.832Z,11.50
2022-09-16T05:47:54.646Z,11.55
2022-09-16T05:50:22.659Z,11.64
2022-09-16T05:52:51.442Z,11.57
2022-09-16T05:55:19.357Z,11.62
2022-09-16T05:57:47.330Z,11.63
2022-09-16T06:00:15.944Z,11.59
2022-09-16T06:02:49.220Z,11.70
2022-09-16T06:05:17.846Z,11.62
2022-09-16T06:07:46.525Z,11.63
2022-09-16T06:10:14.156Z,11.73
2022-09-16T06:12:41.630Z,13.27
2022-09-16T06:15:10.144Z,13.08
2022-09-16T06:17:37.792Z,12.28
2022-09-16T06:20:13.876Z,12.29
2022-09-16T06:22:42.178Z,12.34
2022-09-16T06:25:10.354Z,12.73
2022-09-16T06:27:38.662Z,12.53
2022-09-16T06:30:07.093Z,12.23
2022-09-16T06:32:34.978Z,12.39
2022-09-16T06:35:03.601Z,12.27
2022-09-16T06:37:32.602Z,12.17
2022-09-16T06:40:01.230Z,12.15
2022-09-16T06:42:30.128Z,12.14
2022-09-16T06:44:58.848Z,12.06
2022-09-16T06:47:26.994Z,11.98
2022-09-16T06:49:54.756Z,12.18
2022-09-16T06:52:23.688Z,11.96
2022-09-16T06:54:52.692Z,12.05
2022-09-16T06:57:23.060Z,12.18
2022-09-16T06:59:50.940Z,11.96
2022-09-16T07:02:19.032Z,11.96
2022-09-16T07:04:46.702Z,12.00
2022-09-16T07:07:14.628Z,12.03
2022-09-16T07:09:43.223Z,12.26
2022-09-16T07:12:17.429Z,12.06
2022-09-16T07:14:46.954Z,12.14
2022-09-16T07:17:15.852Z,12.14
2022-09-16T07:19:44.598Z,12.39
2022-09-16T07:22:12.423Z,12.12
2022-09-16T07:24:40.083Z,12.06
2022-09-16T07:27:07.661Z,12.19
2022-09-16T07:29:37.577Z,12.29
2022-09-16T07:32:05.420Z,12.40
2022-09-16T07:34:33.046Z,12.73
2022-09-16T07:37:00.751Z,12.68
2022-09-16T07:39:28.607Z,12.74
2022-09-16T07:41:57.383Z,12.67
2022-09-16T07:44:25.872Z,12.86
2022-09-16T07:46:54.864Z,12.88
2022-09-16T07:49:22.686Z,12.89
2022-09-16T07:51:50.213Z,13.04
2022-09-16T07:54:19.216Z,13.07
2022-09-16T07:56:46.808Z,13.19
2022-09-16T07:59:18.523Z,13.17
2022-09-16T08:01:51.410Z,13.46
2022-09-16T08:04:21.567Z,13.36
2022-09-16T08:06:49.647Z,13.49
2022-09-16T08:12:06.582Z,13.61
2022-09-16T08:14:35.371Z,13.80
2022-09-16T08:17:03.872Z,13.81
2022-09-16T08:19:35.482Z,13.72
2022-09-16T08:22:04.412Z,13.82
2022-09-16T08:24:32.752Z,14.01
2022-09-16T08:27:01.220Z,13.87
2022-09-16T08:29:29.850Z,14.11
2022-09-16T08:31:57.714Z,14.15
2022-09-16T08:34:25.612Z,14.43
2022-09-16T08:36:56.647Z,14.33
2022-09-16T08:39:24.379Z,14.55
2022-09-16T08:42:03.435Z,14.47
2022-09-16T08:44:36.865Z,14.42
2022-09-16T08:47:12.575Z,14.42
2022-09-16T08:49:45.729Z,14.37
2022-09-16T08:52:24.771Z,14.79
2022-09-16T08:54:54.592Z,14.62
2022-09-16T08:57:25.890Z,14.78
2022-09-16T08:59:56.198Z,14.79
2022-09-16T09:02:35.323Z,14.82
2022-09-16T09:05:04.515Z,15.12
2022-09-16T09:07:42.618Z,15.16
2022-09-16T09:10:19.786Z,15.06
2022-09-16T09:12:51.808Z,14.99
2022-09-16T09:15:30.584Z,14.95
2022-09-16T09:18:08.215Z,15.25
2022-09-16T09:20:45.783Z,15.12
2022-09-16T09:23:23.924Z,15.14
2022-09-16T09:25:56.692Z,15.32
2022-09-16T09:28:41.757Z,15.51
2022-09-16T09:31:16.010Z,16.02
2022-09-16T09:33:48.362Z,15.85
2022-09-16T09:36:38.520Z,16.27
2022-09-16T09:39:36.579Z,15.97
2022-09-16T09:42:10.496Z,16.64
2022-09-16T09:44:46.427Z,16.41
2022-09-16T09:47:17.950Z,16.19
2022-09-16T09:49:48.809Z,15.99
2022-09-16T09:52:19.786Z,16.03
2022-09-16T09:54:54.105Z,15.80
2022-09-16T09:57:28.133Z,15.84
2022-09-16T10:00:00.855Z,15.56
2022-09-16T10:02:29.672Z,15.87
2022-09-16T10:04:57.483Z,16.07
2022-09-16T10:07:28.570Z,15.78
2022-09-16T10:10:03.540Z,16.29
2022-09-16T10:12:32.604Z,15.80
2022-09-16T10:15:00.611Z,15.53
2022-09-16T10:17:30.393Z,15.86
2022-09-16T10:20:00.161Z,16.22
2022-09-16T10:22:29.801Z,16.49
2022-09-16T10:25:00.466Z,16.37
2022-09-16T10:27:30.245Z,16.77
2022-09-16T10:30:06.420Z,16.87
2022-09-16T10:32:35.488Z,16.45
2022-09-16T10:35:08.203Z,16.90
2022-09-16T10:37:36.047Z,17.38
2022-09-16T10:40:07.768Z,16.80
2022-09-16T10:42:35.796Z,16.91
2022-09-16T10:45:09.871Z,16.56
2022-09-16T10:47:39.010Z,16.44
2022-09-16T10:50:07.964Z,16.29
2022-09-16T10:52:43.735Z,15.79
2022-09-16T10:55:23.216Z,16.37
2022-09-16T10:57:51.925Z,16.37
2022-09-16T11:00:22.288Z,16.70
2022-09-16T11:03:32.175Z,16.67
2022-09-16T11:06:08.166Z,17.19
2022-09-16T11:08:46.590Z,17.11
2022-09-16T11:11:24.501Z,16.79
2022-09-16T11:13:59.068Z,17.06
2022-09-16T11:16:38.587Z,16.87
2022-09-16T11:19:11.702Z,17.04
2022-09-16T11:21:55.888Z,17.03
2022-09-16T11:24:49.090Z,17.83
2022-09-16T11:27:25.791Z,17.43
2022-09-16T11:30:02.734Z,16.63
2022-09-16T11:32:40.022Z,16.88
2022-09-16T11:35:24.528Z,17.01
2022-09-16T11:37:57.161Z,17.49
2022-09-16T11:40:32.833Z,17.15
2022-09-16T11:43:32.762Z,17.49
2022-09-16T11:46:06.787Z,16.84
2022-09-16T11:48:43.224Z,16.97
2022-09-16T11:51:20.201Z,17.35
2022-09-16T11:54:02.432Z,16.74
2022-09-16T11:56:36.715Z,17.42
2022-09-16T11:59:14.112Z,17.05
2022-09-16T12:01:44.610Z,17.21
2022-09-16T12:04:19.985Z,17.53
2022-09-16T12:06:54.220Z,17.24
2022-09-16T12:09:28.298Z,17.52
2022-09-16T12:12:00.805Z,17.32
2022-09-16T12:14:35.092Z,16.85
2022-09-16T12:17:05.941Z,17.46
2022-09-16T12:19:37.065Z,17.35
2022-09-16T12:22:07.911Z,16.89
2022-09-16T12:24:41.446Z,16.97
2022-09-16T12:27:14.491Z,17.71
2022-09-16T12:29:49.831Z,17.52
2022-09-16T12:32:22.656Z,17.38
2022-09-16T12:34:55.767Z,17.57
2022-09-16T12:37:41.397Z,18.47
2022-09-16T12:40:17.000Z,17.35
2022-09-16T12:43:29.189Z,18.03
2022-09-16T12:46:23.138Z,18.24
2022-09-16T12:49:26.949Z,18.00
2022-09-16T12:52:14.571Z,18.20
2022-09-16T12:55:11.506Z,18.36
2022-09-16T12:57:48.229Z,18.15
2022-09-16T13:00:21.276Z,18.37
2022-09-16T13:02:52.934Z,17.90
2022-09-16T13:05:27.192Z,17.29
2022-09-16T13:08:00.158Z,18.26
2022-09-16T13:10:54.074Z,18.99
2022-09-16T13:13:31.139Z,19.87
2022-09-16T13:16:00.743Z,19.69
2022-09-16T13:18:42.693Z,18.35
2022-09-16T13:21:24.265Z,18.20
2022-09-16T13:23:59.685Z,17.73
2022-09-16T13:26:27.541Z,18.92
2022-09-16T13:28:59.018Z,18.79
2022-09-16T13:31:34.178Z,19.66
2022-09-16T13:34:17.495Z,18.34
2022-09-16T13:37:46.887Z,18.87
2022-09-16T13:40:21.454Z,19.05
2022-09-16T13:42:50.064Z,18.86
2022-09-16T13:45:35.687Z,19.45
2022-09-16T13:48:11.697Z,18.98
2022-09-16T13:50:42.775Z,19.38
2022-09-16T13:53:12.349Z,19.25
2022-09-16T13:55:41.570Z,18.60
2022-09-16T13:58:19.063Z,19.15
2022-09-16T14:00:54.866Z,19.59
2022-09-16T14:03:49.167Z,18.54
2022-09-16T14:06:49.501Z,18.10
2022-09-16T14:09:35.324Z,19.91
2022-09-16T14:12:09.986Z,19.85
2022-09-16T14:14:47.863Z,18.37
2022-09-16T14:17:19.109Z,18.18
2022-09-16T14:19:50.704Z,19.82
2022-09-16T14:22:23.775Z,19.72
2022-09-16T14:25:00.681Z,20.08
2022-09-16T14:27:36.785Z,20.47
2022-09-16T14:30:06.991Z,21.26
2022-09-16T14:32:37.868Z,20.56
2022-09-16T14:35:12.051Z,21.55
2022-09-16T14:37:41.707Z,20.43
2022-09-16T14:40:14.608Z,19.98
2022-09-16T14:42:48.867Z,22.29
2022-09-16T14:45:17.948Z,20.99
2022-09-16T14:47:51.483Z,21.04
2022-09-16T14:50:22.700Z,21.42
2022-09-16T14:52:58.227Z,19.64
2022-09-16T14:55:31.335Z,23.94
2022-09-16T14:57:59.787Z,21.33
2022-09-16T15:00:32.454Z,20.78
2022-09-16T15:03:04.112Z,21.48
2022-09-16T15:05:35.095Z,20.86
2022-09-16T15:08:14.669Z,21.29
2022-09-16T15:10:52.523Z,18.93
2022-09-16T15:13:22.578Z,18.16
2022-09-16T15:15:53.213Z,18.64
2022-09-16T15:18:25.482Z,18.11
2022-09-16T15:20:56.338Z,21.61
2022-09-16T15:23:28.551Z,22.17
2022-09-16T15:26:00.796Z,22.78
2022-09-16T15:28:28.833Z,23.04
2022-09-16T15:30:59.510Z,19.76
2022-09-16T15:33:34.694Z,23.35
2022-09-16T15:36:03.059Z,22.22
2022-09-16T15:38:35.495Z,22.52
2022-09-16T15:41:04.961Z,19.28
2022-09-16T15:43:36.836Z,19.87
2022-09-16T15:46:09.056Z,20.64
2022-09-16T15:48:45.623Z,21.22
2022-09-16T15:51:28.953Z,20.81
2022-09-16T15:54:04.010Z,21.23
2022-09-16T15:56:34.683Z,22.21
2022-09-16T15:59:05.510Z,20.07
2022-09-16T16:01:41.892Z,17.82
2022-09-16T16:04:11.224Z,19.54
2022-09-16T16:06:51.718Z,18.28
2022-09-16T16:09:42.039Z,18.97
2022-09-16T16:12:12.658Z,19.96
2022-09-16T16:14:41.661Z,19.59
2022-09-16T16:17:13.809Z,18.83
2022-09-16T16:19:43.004Z,17.19
2022-09-16T16:22:11.917Z,16.88
2022-09-16T16:24:41.635Z,16.62
2022-09-16T16:27:10.657Z,17.28
2022-09-16T16:29:39.339Z,16.90
2022-09-16T16:32:09.585Z,17.49
2022-09-16T16:34:40.538Z,16.40
2022-09-16T16:37:19.140Z,16.56
2022-09-16T16:39:59.418Z,16.54
2022-09-16T16:42:30.782Z,16.56
2022-09-16T16:44:58.604Z,16.08
2022-09-16T16:47:26.472Z,16.07
2022-09-16T16:49:55.118Z,16.02
2022-09-16T16:52:23.759Z,16.06
2022-09-16T16:54:52.313Z,15.97
2022-09-16T16:57:21.607Z,15.92
2022-09-16T16:59:49.409Z,15.94
2022-09-16T17:02:17.189Z,15.75
2022-09-16T17:04:45.566Z,15.61
2022-09-16T17:07:28.931Z,15.63
2022-09-16T17:09:58.723Z,15.65
2022-09-16T17:12:28.357Z,15.67
2022-09-16T17:14:56.636Z,15.64
2022-09-16T17:17:31.419Z,15.49
2022-09-16T17:19:59.927Z,15.38
2022-09-16T17:22:28.614Z,15.45
2022-09-16T17:24:56.864Z,15.28
2022-09-16T17:27:29.732Z,15.23
2022-09-16T17:30:01.194Z,15.21
2022-09-16T17:32:29.292Z,15.16
2022-09-16T17:34:58.122Z,15.10
2022-09-16T17:37:26.733Z,15.11
2022-09-16T17:39:58.292Z,15.05
2022-09-16T17:42:29.269Z,15.05
2022-09-16T17:44:57.083Z,15.01
2022-09-16T17:47:25.292Z,15.05
2022-09-16T17:49:53.723Z,15.06
2022-09-16T17:52:22.021Z,15.06
2022-09-16T17:54:51.680Z,14.91
2022-09-16T17:57:21.348Z,14.47
2022-09-16T17:59:50.489Z,13.52
2022-09-16T18:02:18.369Z,13.10
2022-09-16T18:04:48.049Z,13.06
2022-09-16T18:07:16.128Z,13.05
2022-09-16T18:09:44.367Z,13.10
2022-09-16T18:12:13.474Z,13.15
2022-09-16T18:14:41.865Z,13.15
2022-09-16T18:17:14.338Z,13.11
2022-09-16T18:19:42.170Z,13.12
2022-09-16T18:22:10.613Z,13.17
2022-09-16T18:24:38.709Z,13.27
2022-09-16T18:27:06.684Z,13.28
2022-09-16T18:29:36.852Z,13.34
2022-09-16T18:32:04.833Z,13.38
2022-09-16T18:34:35.683Z,13.43
2022-09-16T18:37:03.630Z,13.40
2022-09-16T18:39:31.403Z,13.46
2022-09-16T18:41:59.660Z,13.49
2022-09-16T18:44:28.862Z,13.49
2022-09-16T18:46:58.038Z,13.55
2022-09-16T18:53:07.622Z,13.57
2022-09-16T18:55:36.164Z,13.63
2022-09-16T18:58:04.030Z,13.61
2022-09-16T19:00:32.428Z,13.68
2022-09-16T19:03:00.077Z,13.64
2022-09-16T19:05:29.600Z,13.66
2022-09-16T19:07:57.376Z,13.63
2022-09-16T19:10:27.186Z,13.62
2022-09-16T19:12:56.666Z,13.63
2022-09-16T19:15:25.313Z,13.58
2022-09-16T19:17:53.984Z,13.56
2022-09-16T19:20:22.296Z,13.53
2022-09-16T19:22:50.122Z,13.55
2022-09-16T19:25:20.774Z,13.57
2022-09-16T19:27:50.438Z,13.55
2022-09-16T19:30:18.806Z,13.53
2022-09-16T19:32:47.412Z,13.52
2022-09-16T19:35:16.754Z,13.52
2022-09-16T19:37:44.560Z,13.42
2022-09-16T19:40:12.725Z,13.42
2022-09-16T19:42:41.095Z,13.46
2022-09-16T19:45:11.172Z,13.44
2022-09-16T19:47:39.305Z,13.35
2022-09-16T19:50:07.537Z,13.42
2022-09-16T19:52:37.875Z,13.44
2022-09-16T19:55:06.494Z,13.35
2022-09-16T19:57:35.334Z,13.33
2022-09-16T20:00:03.716Z,13.31
2022-09-16T20:02:34.044Z,13.33
2022-09-16T20:05:04.978Z,13.26
2022-09-16T20:07:37.766Z,13.21
2022-09-16T20:11:09.811Z,13.13
2022-09-16T20:13:38.390Z,13.12
2022-09-16T20:16:09.076Z,13.05
2022-09-16T20:18:39.277Z,13.07
2022-09-16T20:21:10.178Z,13.07
2022-09-16T20:23:38.371Z,13.10
2022-09-16T20:27:07.654Z,13.16
2022-09-16T20:29:36.212Z,13.18
2022-09-16T20:32:04.252Z,13.18
2022-09-16T20:34:35.606Z,13.15
2022-09-16T20:37:04.449Z,13.14
2022-09-16T20:39:34.100Z,13.05
2022-09-16T20:42:01.966Z,12.88
2022-09-16T20:44:29.631Z,12.77
2022-09-16T20:46:57.878Z,12.67
2022-09-16T20:50:27.342Z,12.54
2022-09-16T20:52:57.539Z,12.37
2022-09-16T20:56:37.398Z,12.31
2022-09-16T20:59:07.348Z,12.18
2022-09-16T21:01:36.885Z,11.92
2022-09-16T21:04:06.987Z,11.83
2022-09-16T21:06:35.758Z,11.89
2022-09-16T21:09:08.434Z,11.82
2022-09-16T21:11:37.353Z,11.80
2022-09-16T21:14:07.608Z,11.76
2022-09-16T21:16:37.034Z,11.70
2022-09-16T21:19:09.355Z,11.67
2022-09-16T21:21:39.533Z,11.67
2022-09-16T21:24:10.049Z,11.62
2022-09-16T21:26:40.457Z,11.59
2022-09-16T21:29:11.083Z,11.57
2022-09-16T21:31:41.143Z,11.61
2022-09-16T21:34:12.834Z,11.65
2022-09-16T21:36:41.061Z,11.54
2022-09-16T21:39:14.279Z,11.46
2022-09-16T21:41:42.556Z,11.48
2022-09-16T21:44:10.831Z,11.48
2022-09-16T21:46:41.220Z,11.45
2022-09-16T21:49:14.306Z,11.46
2022-09-16T21:51:42.131Z,11.40
2022-09-16T21:54:16.603Z,11.41
2022-09-16T21:56:47.687Z,11.41
2022-09-16T21:59:15.578Z,11.38
2022-09-16T22:01:44.384Z,11.35
2022-09-16T22:04:13.859Z,11.38
2022-09-16T22:06:41.943Z,11.34
2022-09-16T22:09:12.441Z,11.34
2022-09-16T22:11:42.354Z,11.30
2022-09-16T22:14:11.281Z,11.22
2022-09-16T22:16:40.382Z,11.24
2022-09-16T22:19:11.244Z,11.20
2022-09-16T22:21:40.931Z,11.20
2022-09-16T22:24:09.547Z,11.18
2022-09-16T22:26:39.643Z,11.15
2022-09-16T22:29:09.389Z,11.10
2022-09-16T22:31:39.465Z,11.10
2022-09-16T22:34:08.778Z,11.16
2022-09-16T22:36:37.965Z,11.16
2022-09-16T22:39:08.980Z,11.10
2022-09-16T22:41:42.350Z,11.17
2022-09-16T22:44:10.558Z,11.22
2022-09-16T22:46:41.461Z,11.18
2022-09-16T22:49:09.450Z,11.26
2022-09-16T22:51:38.021Z,11.18
2022-09-16T22:54:06.489Z,11.18
2022-09-16T22:56:34.557Z,11.10
2022-09-16T22:59:08.601Z,11.16
2022-09-16T23:01:39.003Z,11.11
2022-09-16T23:04:08.009Z,11.10
2022-09-16T23:06:37.784Z,11.06
2022-09-16T23:09:06.599Z,11.08
2022-09-16T23:11:36.356Z,11.14
2022-09-16T23:14:06.384Z,11.14
2022-09-16T23:16:36.598Z,11.17
2022-09-16T23:19:06.077Z,11.19
2022-09-16T23:21:36.466Z,11.17
2022-09-16T23:24:07.232Z,11.18
2022-09-16T23:26:37.701Z,11.21
2022-09-16T23:29:08.447Z,11.18
2022-09-16T23:31:39.823Z,11.20
2022-09-16T23:34:08.632Z,11.16
2022-09-16T23:36:37.931Z,11.14
2022-09-16T23:39:06.319Z,11.13
2022-09-16T23:42:35.696Z,11.06
2022-09-16T23:46:05.113Z,11.03
2022-09-16T23:48:36.090Z,11.03
2022-09-16T23:51:04.508Z,11.01
2022-09-16T23:53:34.594Z,10.99
2022-09-16T23:56:05.755Z,10.99
2022-09-16T23:58:33.864Z,11.01
